Time;durP1;ratioP1;P1;durP2;ratioP2;P2;SDS_P1;SDS_P2;PMS_P1;PMS_P2;Temp;Humidity;BMP_temperature;BMP_pressure;BME280_temperature;BME280_humidity;BME280_pressure;Samples;Min_cycle;Max_cycle;Signal;HPM_P1;HPM_P2
2024/03/10 00:00:57;;;;;;;61.50;25.70;;;;;;;5.86;40.54;100311.95;107636;1258;70342;-67
2024/03/10 00:03:26;;;;;;;70.40;26.40;;;;;;;5.67;40.91;100312.39;107649;1257;73207;-66
2024/03/10 00:05:53;;;;;;;59.80;24.30;;;;;;;5.34;41.31;100312.11;107623;1260;62701;-66
2024/03/10 00:08:21;;;;;;;66.50;27.50;;;;;;;5.28;41.45;100310.45;107603;1257;59525;-66
2024/03/10 00:10:50;;;;;;;60.20;26.70;;;;;;;5.23;41.49;100314.52;107727;1257;73037;-66
2024/03/10 00:13:18;;;;;;;67.90;26.80;;;;;;;5.21;41.62;100315.59;107653;1257;68716;-67
2024/03/10 00:15:45;;;;;;;65.20;26.50;;;;;;;5.22;41.67;100311.23;107733;1257;71213;-66
2024/03/10 00:18:13;;;;;;;54.40;22.30;;;;;;;5.29;41.38;100308.20;107977;1253;59971;-67
2024/03/10 00:20:41;;;;;;;66.90;26.20;;;;;;;5.29;41.50;100308.02;108016;1254;59543;-65
2024/03/10 00:23:09;;;;;;;69.70;27.00;;;;;;;5.14;41.70;100304.88;108067;1254;73015;-65
2024/03/10 00:25:36;;;;;;;57.60;22.80;;;;;;;5.00;41.80;100305.05;108157;1253;69047;-67
2024/03/10 00:28:04;;;;;;;65.10;25.40;;;;;;;5.03;41.98;100300.48;108142;1254;72789;-65
2024/03/10 00:30:33;;;;;;;67.30;26.10;;;;;;;4.97;41.97;100296.90;108394;1251;61643;-66
2024/03/10 00:33:01;;;;;;;56.30;24.10;;;;;;;4.80;42.25;100296.91;108448;1251;59998;-66
2024/03/10 00:35:29;;;;;;;58.90;26.10;;;;;;;4.95;42.00;100293.10;108376;1251;73316;-67
2024/03/10 00:37:57;;;;;;;58.50;23.60;;;;;;;5.01;41.83;100292.67;108338;1251;69957;-66
2024/03/10 00:40:26;;;;;;;64.00;24.70;;;;;;;5.02;41.80;100292.49;108366;1251;71900;-66
2024/03/10 00:42:53;;;;;;;64.10;25.60;;;;;;;4.91;41.97;100292.78;108269;1250;61719;-66
2024/03/10 00:45:22;;;;;;;52.10;22.20;;;;;;;4.79;42.21;100290.48;108366;1256;59974;-66
2024/03/10 00:47:54;;;;;;;60.20;23.50;;;;;;;4.71;42.53;100293.71;108379;1250;71870;-65
2024/03/10 00:50:22;;;;;;;69.10;25.70;;;;;;;4.58;42.74;100292.45;108353;1251;70022;-65
2024/03/10 00:52:51;;;;;;;57.30;23.00;;;;;;;4.61;42.88;100290.67;108266;1254;71377;-66
2024/03/10 00:55:18;;;;;;;54.40;23.50;;;;;;;4.62;42.87;100291.20;108319;1253;60433;-66
2024/03/10 00:57:46;;;;;;;69.30;24.70;;;;;;;4.62;42.91;100288.41;108377;1250;60069;-66
2024/03/10 01:00:15;;;;;;;62.10;25.90;;;;;;;4.68;42.92;100283.13;108386;1251;71770;-66
2024/03/10 01:02:46;;;;;;;54.70;24.00;;;;;;;4.65;42.72;100286.30;108415;1251;68666;-66
2024/03/10 01:05:13;;;;;;;58.50;23.40;;;;;;;4.63;42.94;100284.41;108379;1254;72694;-66
2024/03/10 01:07:41;;;;;;;61.60;25.50;;;;;;;4.67;42.97;100281.58;108386;1250;60558;-66
2024/03/10 01:10:11;;;;;;;56.10;23.30;;;;;;;4.60;42.86;100283.57;108399;1250;59164;-66
2024/03/10 01:12:39;;;;;;;61.90;23.50;;;;;;;4.58;43.22;100279.94;108323;1251;74012;-66
2024/03/10 01:15:08;;;;;;;53.50;24.70;;;;;;;4.54;42.93;100278.23;108355;1251;69615;-66
2024/03/10 01:17:35;;;;;;;62.40;24.60;;;;;;;4.50;43.16;100275.67;108378;1251;72655;-66
2024/03/10 01:20:04;;;;;;;67.90;26.70;;;;;;;4.59;43.09;100272.27;108465;1256;60346;-66
2024/03/10 01:22:32;;;;;;;66.30;26.30;;;;;;;4.34;43.57;100270.77;108442;1251;60090;-67
2024/03/10 01:25:00;;;;;;;65.50;25.10;;;;;;;4.13;43.84;100269.21;108340;1251;71819;-65
2024/03/10 01:27:28;;;;;;;68.00;26.40;;;;;;;3.90;44.30;100266.45;108256;1250;70392;-65
2024/03/10 01:29:56;;;;;;;65.20;26.50;;;;;;;4.00;44.21;100265.51;108370;1251;72441;-66
2024/03/10 01:32:23;;;;;;;86.90;33.40;;;;;;;4.01;44.05;100264.80;108270;1251;60097;-65
2024/03/10 01:34:51;;;;;;;74.50;34.00;;;;;;;3.99;44.16;100261.34;108215;1251;60057;-66
2024/03/10 01:37:19;;;;;;;85.70;33.80;;;;;;;4.06;44.15;100258.16;108320;1251;72153;-66
2024/03/10 01:39:46;;;;;;;97.50;34.80;;;;;;;4.03;44.12;100260.97;108257;1251;70428;-66
2024/03/10 01:42:15;;;;;;;80.30;32.90;;;;;;;3.98;44.32;100259.44;108243;1251;72590;-66
2024/03/10 01:44:42;;;;;;;72.30;31.40;;;;;;;4.00;44.25;100259.43;108230;1251;61698;-67
2024/03/10 01:47:10;;;;;;;71.10;31.60;;;;;;;3.96;44.51;100257.19;108266;1251;60566;-66
2024/03/10 01:49:39;;;;;;;63.10;25.20;;;;;;;3.91;44.98;100252.89;108334;1251;73009;-66
2024/03/10 01:52:08;;;;;;;86.70;34.80;;;;;;;3.96;45.05;100253.04;108358;1251;70471;-65
2024/03/10 01:54:37;;;;;;;80.50;32.30;;;;;;;3.97;44.95;100249.70;108266;1251;72470;-66
2024/03/10 01:57:05;;;;;;;93.50;35.80;;;;;;;4.03;44.95;100246.38;108151;1254;60421;-67
2024/03/10 01:59:33;;;;;;;100.10;38.80;;;;;;;4.18;44.76;100248.67;108184;1252;59963;-67
2024/03/10 02:02:01;;;;;;;95.50;36.80;;;;;;;4.35;44.46;100242.77;108265;1250;71832;-65
2024/03/10 02:04:29;;;;;;;91.70;37.80;;;;;;;4.31;44.22;100240.05;108109;1256;70133;-65
2024/03/10 02:06:56;;;;;;;77.10;33.30;;;;;;;4.18;44.27;100233.73;108092;1259;70462;-67
2024/03/10 02:09:24;;;;;;;78.20;29.00;;;;;;;4.28;44.25;100232.08;108256;1251;60499;-65
2024/03/10 02:11:52;;;;;;;94.00;38.20;;;;;;;4.27;44.57;100227.73;108475;1251;59558;-66
2024/03/10 02:14:20;;;;;;;76.80;32.20;;;;;;;4.49;44.09;100227.86;108228;1251;70915;-64
2024/03/10 02:16:49;;;;;;;76.90;30.60;;;;;;;4.56;44.02;100229.17;108281;1251;69988;-66
2024/03/10 02:19:18;;;;;;;98.50;37.50;;;;;;;4.57;44.18;100224.98;108325;1251;71384;-64
2024/03/10 02:21:47;;;;;;;92.20;35.20;;;;;;;4.52;44.72;100222.79;108318;1251;60424;-66
2024/03/10 02:24:27;;;;;;;91.80;37.40;;;;;;;4.60;44.86;100219.39;108355;1256;61146;-67
2024/03/10 02:26:55;;;;;;;111.60;40.80;;;;;;;4.66;44.81;100216.02;108386;1251;73185;-66
2024/03/10 02:29:23;;;;;;;111.40;41.60;;;;;;;4.73;44.89;100221.85;108293;1251;70018;-66
2024/03/10 02:48:29;;;;;;;117.30;44.10;;;;;;;5.09;44.67;100218.10;108374;1250;60762;-66
2024/03/10 02:50:57;;;;;;;103.90;41.60;;;;;;;4.87;45.07;100218.55;108331;1253;59624;-66
2024/03/10 02:53:24;;;;;;;113.20;43.10;;;;;;;5.01;44.63;100219.24;108342;1251;72071;-66
2024/03/10 02:55:53;;;;;;;164.60;60.90;;;;;;;4.93;44.90;100213.61;108370;1250;69240;-66
2024/03/10 02:58:21;;;;;;;159.00;58.70;;;;;;;5.02;44.64;100215.59;108222;1257;72750;-66
2024/03/10 03:00:48;;;;;;;136.50;51.20;;;;;;;5.01;44.69;100212.29;108285;1251;61670;-66
2024/03/10 03:03:16;;;;;;;179.30;61.60;;;;;;;5.00;44.46;100215.43;108312;1251;59885;-66
2024/03/10 03:05:43;;;;;;;148.80;52.10;;;;;;;4.89;44.95;100212.96;108308;1251;73022;-65
2024/03/10 03:08:11;;;;;;;172.30;61.50;;;;;;;4.86;44.76;100211.79;108326;1251;70125;-65
2024/03/10 03:10:39;;;;;;;170.20;59.60;;;;;;;4.85;45.02;100208.48;108244;1251;71176;-66
2024/03/10 03:13:06;;;;;;;140.10;52.10;;;;;;;4.85;44.91;100202.41;108444;1254;61689;-66
2024/03/10 03:15:34;;;;;;;155.40;55.00;;;;;;;4.92;45.17;100197.27;108340;1251;62187;-66
2024/03/10 03:18:03;;;;;;;152.70;54.80;;;;;;;4.97;45.04;100195.47;108409;1251;73026;-66
2024/03/10 03:20:32;;;;;;;161.30;55.60;;;;;;;5.07;44.96;100192.38;108393;1255;69974;-65
2024/03/10 03:23:02;;;;;;;143.00;55.60;;;;;;;4.91;44.87;100192.23;108470;1253;71315;-65
2024/03/10 03:25:30;;;;;;;150.90;53.70;;;;;;;4.74;45.32;100187.94;108371;1253;61646;-64
2024/03/10 03:27:58;;;;;;;177.00;63.90;;;;;;;4.70;45.64;100189.19;108461;1251;60268;-65
2024/03/10 03:30:25;;;;;;;160.40;59.90;;;;;;;4.82;45.23;100187.83;108251;1250;73819;-66
2024/03/10 03:32:54;;;;;;;156.70;58.30;;;;;;;4.90;45.33;100182.51;108419;1251;69055;-66
2024/03/10 03:35:22;;;;;;;158.60;59.60;;;;;;;4.74;45.62;100181.48;108151;1251;72733;-66
2024/03/10 03:37:49;;;;;;;151.90;56.20;;;;;;;4.64;45.72;100181.26;108209;1251;60448;-66
2024/03/10 03:40:19;;;;;;;179.80;63.10;;;;;;;4.56;46.20;100180.14;108274;1251;60213;-66
2024/03/10 03:42:46;;;;;;;143.30;54.30;;;;;;;4.57;46.22;100176.48;108271;1251;73851;-67
2024/03/10 03:45:16;;;;;;;143.80;52.30;;;;;;;4.74;46.33;100174.35;108214;1251;68859;-65
2024/03/10 03:47:44;;;;;;;172.50;58.60;;;;;;;4.94;46.18;100177.06;108134;1251;71413;-66
2024/03/10 03:50:11;;;;;;;129.50;50.80;;;;;;;5.03;45.82;100174.51;108197;1253;60292;-65
2024/03/10 03:52:40;;;;;;;155.30;53.90;;;;;;;5.15;45.67;100173.11;108263;1251;60302;-66
2024/03/10 03:55:10;;;;;;;139.70;53.90;;;;;;;5.07;45.63;100166.97;108280;1251;72709;-64
2024/03/10 03:57:38;;;;;;;136.20;49.40;;;;;;;5.08;45.46;100167.64;108163;1251;70070;-66
2024/03/10 04:00:11;;;;;;;151.40;57.00;;;;;;;5.10;45.45;100163.97;108194;1251;71437;-64
2024/03/10 04:02:39;;;;;;;149.90;56.00;;;;;;;4.98;45.49;100162.21;108233;1252;60552;-63
2024/03/10 04:05:08;;;;;;;128.10;47.70;;;;;;;4.87;45.65;100164.29;108280;1251;60464;-66
2024/03/10 04:07:36;;;;;;;163.80;58.50;;;;;;;4.66;45.84;100167.67;108257;1251;72583;-65
2024/03/10 04:10:05;;;;;;;146.60;54.40;;;;;;;4.62;45.93;100163.90;108333;1251;70557;-65
2024/03/10 04:12:33;;;;;;;130.80;47.40;;;;;;;4.80;45.71;100169.59;108354;1251;73007;-66
2024/03/10 04:15:01;;;;;;;163.60;57.60;;;;;;;4.82;45.81;100166.95;108235;1253;61668;-65
2024/03/10 04:17:29;;;;;;;147.70;52.80;;;;;;;4.96;45.72;100166.60;108247;1251;60568;-65
2024/03/10 04:19:57;;;;;;;140.40;52.60;;;;;;;5.04;45.86;100159.69;108124;1251;73847;-64
2024/03/10 04:22:24;;;;;;;161.20;55.20;;;;;;;5.04;46.01;100170.14;108236;1256;68986;-66
2024/03/10 04:24:52;;;;;;;125.60;48.00;;;;;;;5.05;46.27;100173.44;108256;1253;71638;-66
2024/03/10 04:27:20;;;;;;;135.60;48.90;;;;;;;5.11;46.46;100172.48;108243;1253;60387;-65
2024/03/10 04:29:47;;;;;;;109.40;41.90;;;;;;;5.27;46.15;100176.61;108254;1251;60348;-66
2024/03/10 04:32:15;;;;;;;126.20;50.20;;;;;;;5.29;46.20;100178.48;108280;1256;73055;-65
2024/03/10 04:34:42;;;;;;;124.60;46.50;;;;;;;5.33;46.31;100173.90;108246;1251;70079;-66
2024/03/10 04:37:10;;;;;;;155.10;56.30;;;;;;;5.41;46.20;100178.31;108170;1251;70239;-64
2024/03/10 04:39:37;;;;;;;161.60;59.50;;;;;;;5.35;46.18;100176.48;108323;1251;61731;-65
2024/03/10 04:42:05;;;;;;;124.70;49.00;;;;;;;5.51;45.98;100179.55;108172;1251;60876;-65
2024/03/10 04:44:32;;;;;;;143.80;55.70;;;;;;;5.61;45.97;100181.66;108399;1251;73778;-65
2024/03/10 04:47:00;;;;;;;147.30;56.80;;;;;;;5.67;45.84;100181.73;108422;1251;69169;-65
2024/03/10 04:49:28;;;;;;;132.20;50.40;;;;;;;5.76;45.77;100182.82;108293;1251;72390;-65
2024/03/10 04:51:55;;;;;;;127.50;51.90;;;;;;;5.79;45.85;100185.91;108156;1253;61666;-65
2024/03/10 04:54:23;;;;;;;135.00;55.30;;;;;;;5.89;45.39;100186.27;108167;1251;60414;-65
2024/03/10 04:56:51;;;;;;;147.80;57.90;;;;;;;5.97;45.30;100189.28;108225;1251;73845;-65
2024/03/10 04:59:19;;;;;;;160.80;60.90;;;;;;;5.96;45.15;100191.58;108123;1251;68467;-66
2024/03/10 05:01:47;;;;;;;152.30;56.60;;;;;;;5.96;44.99;100193.65;108178;1251;71344;-66
2024/03/10 05:04:15;;;;;;;135.20;53.70;;;;;;;5.90;45.20;100193.55;108256;1253;61159;-66
2024/03/10 05:06:42;;;;;;;154.50;57.30;;;;;;;5.95;45.04;100191.05;108240;1251;60316;-65
2024/03/10 05:09:10;;;;;;;145.20;57.10;;;;;;;5.86;45.08;100197.10;108205;1251;73851;-65
2024/03/10 05:11:37;;;;;;;142.00;51.40;;;;;;;5.78;44.99;100202.98;108217;1251;68829;-66
2024/03/10 05:14:05;;;;;;;116.00;47.90;;;;;;;5.80;45.15;100202.96;108232;1256;71197;-65
2024/03/10 05:16:33;;;;;;;111.90;45.20;;;;;;;5.95;44.74;100202.38;108080;1251;60965;-65
2024/03/10 05:19:00;;;;;;;128.70;51.60;;;;;;;6.33;44.98;100203.11;108259;1251;60434;-66
2024/03/10 05:21:28;;;;;;;117.80;48.80;;;;;;;7.01;45.40;100202.98;108299;1251;72281;-64
2024/03/10 05:23:56;;;;;;;127.20;50.60;;;;;;;7.77;45.65;100197.93;108317;1251;69226;-65
2024/03/10 05:26:24;;;;;;;131.30;56.00;;;;;;;8.54;45.47;100194.90;108231;1254;71803;-66
2024/03/10 05:28:52;;;;;;;116.80;51.20;;;;;;;9.30;45.06;100192.20;108272;1251;60860;-66
2024/03/10 05:31:30;;;;;;;110.80;49.50;;;;;;;10.03;43.56;100187.05;108246;1251;60117;-64
2024/03/10 05:33:59;;;;;;;111.50;44.80;;;;;;;10.84;41.21;100182.08;108296;1256;72790;-66
2024/03/10 05:36:27;;;;;;;107.90;46.70;;;;;;;11.52;39.70;100179.31;108238;1251;70015;-66
2024/03/10 05:38:55;;;;;;;94.60;43.40;;;;;;;11.97;39.03;100176.43;108151;1253;72142;-66
2024/03/10 05:41:22;;;;;;;84.90;39.80;;;;;;;12.61;38.40;100175.95;108094;1258;60346;-67
2024/03/10 05:43:50;;;;;;;96.10;43.20;;;;;;;13.32;37.49;100178.14;108159;1251;60126;-65
2024/03/10 05:46:18;;;;;;;91.80;41.20;;;;;;;13.79;36.75;100169.55;108289;1251;73846;-66
2024/03/10 05:48:47;;;;;;;89.00;40.20;;;;;;;14.42;35.65;100170.05;108235;1251;72470;-67
2024/03/10 05:51:16;;;;;;;83.50;40.60;;;;;;;14.94;34.83;100170.69;108035;1251;72698;-66
2024/03/10 05:53:43;;;;;;;94.10;43.50;;;;;;;15.58;33.70;100166.79;108155;1251;60443;-66
2024/03/10 05:56:11;;;;;;;89.90;43.40;;;;;;;16.20;32.60;100163.72;108229;1251;59706;-66
2024/03/10 05:58:39;;;;;;;86.80;40.10;;;;;;;16.43;31.65;100157.92;107995;1251;74161;-66
2024/03/10 06:01:07;;;;;;;78.10;38.50;;;;;;;16.57;30.40;100155.44;108234;1251;69026;-66
2024/03/10 06:03:35;;;;;;;81.10;40.40;;;;;;;16.79;30.41;100153.38;108251;1251;72671;-66
2024/03/10 06:06:03;;;;;;;67.70;33.90;;;;;;;17.02;29.63;100156.58;108356;1254;60395;-65
2024/03/10 06:08:31;;;;;;;76.30;39.20;;;;;;;17.16;29.24;100160.67;108251;1251;60519;-66
2024/03/10 06:10:58;;;;;;;72.60;36.80;;;;;;;17.44;29.47;100167.04;108266;1251;73824;-63
2024/03/10 06:13:26;;;;;;;71.10;35.20;;;;;;;17.89;29.19;100171.84;108164;1251;68238;-65
2024/03/10 06:15:54;;;;;;;65.30;32.20;;;;;;;18.34;28.51;100171.89;108269;1251;72808;-65
2024/03/10 06:18:24;;;;;;;45.90;25.50;;;;;;;18.56;26.98;100162.37;108255;1251;60300;-66
2024/03/10 06:26:24;;;;;;;43.70;22.30;;;;;;;19.80;25.36;100158.45;108163;1251;68688;-66
2024/03/10 06:28:52;;;;;;;41.70;22.00;;;;;;;20.12;25.13;100163.52;108224;1254;72646;-68
2024/03/10 06:31:20;;;;;;;35.10;20.80;;;;;;;20.40;24.21;100167.09;108270;1251;60436;-67
2024/03/10 06:33:50;;;;;;;36.60;20.20;;;;;;;20.55;23.94;100164.14;108232;1251;60293;-67
2024/03/10 06:36:18;;;;;;;32.70;19.40;;;;;;;20.83;23.44;100166.39;108348;1250;72830;-66
2024/03/10 06:38:45;;;;;;;33.10;18.50;;;;;;;21.31;23.18;100168.60;108243;1251;69935;-67
2024/03/10 06:41:13;;;;;;;37.70;20.20;;;;;;;21.90;22.44;100164.35;108293;1250;72570;-66
2024/03/10 06:43:40;;;;;;;34.30;19.20;;;;;;;21.79;22.47;100169.31;108256;1251;60560;-68
2024/03/10 06:46:11;;;;;;;34.40;18.30;;;;;;;21.88;22.17;100171.09;108363;1251;59581;-68
2024/03/10 06:48:39;;;;;;;31.70;18.80;;;;;;;22.20;22.18;100174.85;108196;1257;72650;-68
2024/03/10 06:51:07;;;;;;;33.60;19.80;;;;;;;22.53;21.71;100176.35;108224;1251;69539;-68
2024/03/10 06:53:34;;;;;;;30.40;19.00;;;;;;;22.66;21.53;100176.16;108328;1251;72567;-68
2024/03/10 06:56:03;;;;;;;35.10;19.30;;;;;;;22.88;21.41;100172.92;108306;1250;60351;-67
2024/03/10 06:58:31;;;;;;;33.00;19.60;;;;;;;23.09;20.96;100175.24;108389;1251;60322;-68
2024/03/10 07:00:58;;;;;;;34.70;21.00;;;;;;;23.14;20.97;100174.84;108333;1250;75852;-69
2024/03/10 07:03:27;;;;;;;34.40;19.60;;;;;;;23.15;20.93;100175.30;108343;1256;71364;-68
2024/03/10 07:05:56;;;;;;;32.40;19.50;;;;;;;23.37;20.95;100171.90;108109;1250;72689;-68
2024/03/10 07:08:24;;;;;;;35.00;19.10;;;;;;;23.65;20.36;100176.16;108327;1251;62498;-68
2024/03/10 07:10:52;;;;;;;30.20;18.50;;;;;;;23.30;20.40;100177.34;108233;1250;60293;-68
2024/03/10 07:13:19;;;;;;;32.00;18.70;;;;;;;23.27;20.69;100183.83;108362;1250;72661;-67
2024/03/10 07:15:47;;;;;;;31.70;18.80;;;;;;;23.68;20.67;100186.25;108200;1251;70097;-68
2024/03/10 07:18:14;;;;;;;33.30;18.50;;;;;;;23.98;20.21;100187.80;108362;1251;72434;-68
2024/03/10 07:20:42;;;;;;;32.50;18.90;;;;;;;24.21;19.85;100186.79;108353;1252;61202;-69
2024/03/10 07:23:13;;;;;;;29.80;18.50;;;;;;;24.29;19.90;100189.66;108331;1251;60440;-68
2024/03/10 07:25:40;;;;;;;38.30;19.50;;;;;;;24.56;19.98;100193.39;108371;1251;72614;-68
2024/03/10 07:28:08;;;;;;;34.20;20.40;;;;;;;24.88;19.60;100193.56;108412;1251;69963;-68
2024/03/10 07:30:36;;;;;;;33.90;20.10;;;;;;;24.92;19.28;100190.11;108339;1251;72350;-69
2024/03/10 07:33:03;;;;;;;33.90;18.80;;;;;;;24.37;19.67;100187.84;108310;1251;60312;-68
2024/03/10 07:35:31;;;;;;;35.30;20.70;;;;;;;24.29;19.80;100190.20;108189;1251;60303;-69
2024/03/10 07:37:58;;;;;;;35.70;19.80;;;;;;;24.31;19.84;100190.53;108332;1251;73136;-67
2024/03/10 07:40:26;;;;;;;30.10;18.80;;;;;;;24.55;19.69;100187.56;108297;1251;68898;-67
2024/03/10 07:42:53;;;;;;;30.90;20.10;;;;;;;24.77;19.51;100187.84;108164;1251;71436;-68
2024/03/10 07:45:21;;;;;;;28.00;16.90;;;;;;;25.02;19.22;100187.74;108288;1251;60386;-69
2024/03/10 07:47:49;;;;;;;30.50;18.60;;;;;;;24.94;19.00;100189.77;108291;1251;60332;-68
2024/03/10 07:50:17;;;;;;;31.70;17.50;;;;;;;24.90;18.86;100193.35;108271;1251;72986;-67
2024/03/10 07:52:46;;;;;;;32.10;18.10;;;;;;;25.00;18.86;100190.42;108107;1251;70077;-68
2024/03/10 07:55:16;;;;;;;29.60;18.30;;;;;;;25.25;18.97;100190.35;108336;1253;73472;-68
2024/03/10 07:57:44;;;;;;;30.30;18.90;;;;;;;25.72;18.76;100188.99;108330;1251;62375;-69
2024/03/10 08:00:16;;;;;;;30.40;18.30;;;;;;;25.97;18.24;100185.83;108330;1251;61096;-68
2024/03/10 08:02:44;;;;;;;28.70;17.70;;;;;;;25.86;18.47;100187.92;108317;1250;74984;-68
2024/03/10 08:05:12;;;;;;;30.60;16.70;;;;;;;26.21;18.19;100186.95;108335;1251;71403;-69
2024/03/10 08:07:40;;;;;;;29.90;17.10;;;;;;;26.42;17.93;100193.09;108344;1251;72911;-68
2024/03/10 08:10:12;;;;;;;34.20;17.20;;;;;;;26.57;17.73;100193.21;108368;1251;60494;-69
2024/03/10 08:12:46;;;;;;;28.20;16.40;;;;;;;26.73;17.59;100192.07;108358;1257;60296;-69
2024/03/10 08:15:14;;;;;;;28.00;16.80;;;;;;;27.00;17.68;100194.31;108149;1251;73760;-68
2024/03/10 08:17:41;;;;;;;28.50;18.10;;;;;;;27.42;17.08;100192.78;108352;1254;69955;-68
2024/03/10 08:20:13;;;;;;;25.70;17.30;;;;;;;27.15;17.08;100197.77;108366;1256;73070;-68
2024/03/10 08:22:43;;;;;;;27.10;17.00;;;;;;;26.90;17.34;100202.20;108285;1251;60504;-68
2024/03/10 08:25:11;;;;;;;31.20;17.30;;;;;;;27.02;17.34;100203.67;108249;1251;60183;-68
2024/03/10 08:27:38;;;;;;;27.20;17.60;;;;;;;27.15;17.23;100204.82;108348;1251;75111;-68
2024/03/10 08:30:09;;;;;;;30.10;17.10;;;;;;;27.26;17.23;100211.27;108325;1251;68841;-68
2024/03/10 08:32:37;;;;;;;30.40;17.00;;;;;;;27.22;17.04;100215.22;108214;1253;72467;-69
2024/03/10 08:35:09;;;;;;;30.50;18.00;;;;;;;27.31;16.98;100218.80;108355;1253;59227;-68
2024/03/10 08:37:47;;;;;;;30.10;18.20;;;;;;;27.37;16.85;100225.56;108338;1251;60295;-69
2024/03/10 08:40:16;;;;;;;27.10;17.50;;;;;;;27.25;16.97;100228.06;108234;1251;72596;-69
2024/03/10 08:42:45;;;;;;;28.90;16.20;;;;;;;27.05;16.86;100228.72;108373;1251;70072;-70
2024/03/10 08:45:12;;;;;;;30.30;16.50;;;;;;;27.05;16.93;100230.03;108316;1251;72741;-69
2024/03/10 08:47:41;;;;;;;24.90;16.20;;;;;;;27.12;16.88;100226.40;108291;1254;60331;-69
2024/03/10 08:50:10;;;;;;;25.60;15.60;;;;;;;27.00;17.00;100221.47;108371;1251;61762;-68
2024/03/10 08:52:38;;;;;;;25.00;14.80;;;;;;;27.29;16.78;100221.83;108398;1251;73939;-70
2024/03/10 08:55:07;;;;;;;23.20;15.80;;;;;;;27.62;16.65;100222.21;108226;1257;68854;-69
2024/03/10 08:57:35;;;;;;;21.90;15.00;;;;;;;27.60;16.20;100225.66;108316;1251;72891;-69
2024/03/10 09:00:04;;;;;;;30.00;14.70;;;;;;;27.25;16.48;100229.19;108437;1251;60581;-69
2024/03/10 09:02:32;;;;;;;24.80;15.10;;;;;;;27.29;16.67;100235.23;108206;1251;60427;-69
2024/03/10 09:05:00;;;;;;;27.30;16.00;;;;;;;27.62;16.36;100234.46;108176;1251;73088;-68
2024/03/10 09:07:28;;;;;;;26.20;14.80;;;;;;;27.75;15.85;100236.63;108307;1251;69138;-69
2024/03/10 09:09:59;;;;;;;32.40;17.70;;;;;;;26.91;16.23;100233.91;108231;1251;72606;-67
2024/03/10 09:12:27;;;;;;;25.70;15.10;;;;;;;26.18;16.86;100241.40;108218;1254;60604;-68
2024/03/10 09:14:57;;;;;;;25.00;15.10;;;;;;;26.06;17.32;100237.71;108254;1254;60424;-67
2024/03/10 09:17:29;;;;;;;23.80;14.30;;;;;;;26.40;17.06;100237.18;108136;1253;73847;-69
2024/03/10 09:19:58;;;;;;;22.60;14.10;;;;;;;26.85;16.65;100237.30;108129;1254;70229;-67
2024/03/10 09:22:26;;;;;;;22.70;13.00;;;;;;;26.99;16.43;100237.83;108075;1254;73041;-68
2024/03/10 09:24:54;;;;;;;23.50;12.40;;;;;;;26.90;16.19;100236.23;108138;1254;60431;-67
2024/03/10 09:27:22;;;;;;;20.30;11.60;;;;;;;26.93;16.41;100235.69;108236;1254;60836;-66
2024/03/10 09:29:51;;;;;;;19.90;11.50;;;;;;;27.24;16.24;100234.98;108186;1252;72668;-68
2024/03/10 09:32:22;;;;;;;25.60;12.90;;;;;;;27.26;16.29;100233.19;108232;1256;69037;-69
2024/03/10 09:34:51;;;;;;;21.90;11.90;;;;;;;27.19;16.46;100231.74;108159;1254;74807;-69
2024/03/10 09:37:19;;;;;;;27.80;13.80;;;;;;;26.97;16.09;100228.11;108106;1259;60162;-69
2024/03/10 09:39:46;;;;;;;22.40;12.50;;;;;;;26.91;16.34;100225.27;108051;1253;59990;-69
2024/03/10 09:42:14;;;;;;;23.60;12.40;;;;;;;26.91;16.46;100227.34;108141;1253;74542;-68
2024/03/10 09:44:45;;;;;;;21.30;13.00;;;;;;;26.72;16.44;100227.15;107981;1253;69863;-68
2024/03/10 09:47:13;;;;;;;19.20;10.20;;;;;;;26.81;16.58;100228.39;108123;1254;72944;-71
2024/03/10 09:49:42;;;;;;;16.70;10.10;;;;;;;27.17;16.36;100229.85;108007;1254;60636;-69
2024/03/10 09:52:11;;;;;;;16.50;10.30;;;;;;;27.47;16.00;100225.05;108151;1254;60335;-68
2024/03/10 09:54:39;;;;;;;28.60;11.10;;;;;;;27.70;15.88;100227.65;108129;1253;74481;-69
2024/03/10 09:57:08;;;;;;;17.20;9.90;;;;;;;28.06;15.73;100230.95;107912;1254;71995;-69
2024/03/10 09:59:42;;;;;;;18.30;8.70;;;;;;;28.19;15.24;100230.28;108037;1254;74948;-69
2024/03/10 10:02:28;;;;;;;18.50;10.20;;;;;;;27.89;15.29;100232.98;108052;1254;60340;-68
2024/03/10 10:04:58;;;;;;;18.60;9.40;;;;;;;27.90;15.44;100231.08;107986;1259;62401;-68
2024/03/10 10:07:27;;;;;;;19.20;8.90;;;;;;;27.95;15.35;100231.41;108097;1258;74339;-68
2024/03/10 10:09:59;;;;;;;17.70;9.50;;;;;;;28.11;15.41;100227.37;108053;1254;68721;-68
2024/03/10 10:12:27;;;;;;;17.40;9.20;;;;;;;27.94;15.38;100238.58;108121;1254;71828;-68
2024/03/10 10:14:56;;;;;;;16.20;8.60;;;;;;;28.02;15.37;100232.60;108130;1254;60487;-66
2024/03/10 10:17:25;;;;;;;20.50;9.20;;;;;;;28.09;15.20;100231.89;108155;1254;60350;-68
2024/03/10 10:19:53;;;;;;;17.00;9.10;;;;;;;27.63;15.49;100226.23;108177;1254;74183;-68
2024/03/10 10:22:20;;;;;;;13.90;9.00;;;;;;;27.60;15.43;100226.64;108152;1253;69170;-69
2024/03/10 10:25:12;;;;;;;20.90;9.70;;;;;;;27.82;15.41;100222.85;108131;1254;72658;-68
2024/03/10 10:27:52;;;;;;;13.50;7.90;;;;;;;27.85;15.26;100222.02;108062;1254;60856;-69
2024/03/10 10:30:22;;;;;;;17.60;9.60;;;;;;;27.80;15.27;100232.52;108142;1253;60290;-69
2024/03/10 10:33:20;;;;;;;;;;;;;;;27.78;15.38;100233.21;108024;1254;74677;-68
2024/03/10 10:35:48;;;;;;;20.50;10.30;;;;;;;27.68;15.53;100225.18;108041;1254;68879;-70
2024/03/10 10:38:16;;;;;;;19.00;9.90;;;;;;;27.66;15.54;100229.30;108293;1254;75039;-69
2024/03/10 10:40:45;;;;;;;17.10;9.70;;;;;;;27.75;15.73;100233.20;108340;1253;60467;-69
2024/03/10 10:43:13;;;;;;;15.50;9.20;;;;;;;27.55;15.42;100233.55;108371;1252;60396;-68
2024/03/10 10:45:43;;;;;;;20.70;10.00;;;;;;;27.40;15.66;100234.46;108246;1253;74763;-69
2024/03/10 10:48:11;;;;;;;20.30;9.40;;;;;;;27.33;15.67;100231.86;108298;1252;69714;-69
2024/03/10 10:50:42;;;;;;;21.20;10.40;;;;;;;27.00;15.60;100231.59;108175;1253;72706;-69
2024/03/10 10:53:11;;;;;;;16.10;9.10;;;;;;;26.79;15.90;100229.30;108102;1254;60097;-68
2024/03/10 10:55:40;;;;;;;16.20;9.60;;;;;;;26.82;16.06;100228.02;108020;1259;60748;-70
2024/03/10 10:58:11;;;;;;;16.30;9.20;;;;;;;27.00;16.17;100224.33;108136;1257;74101;-68
2024/03/10 11:00:42;;;;;;;;;;;;;;;27.13;16.17;100229.58;108284;1254;70477;-69
2024/03/10 11:03:17;;;;;;;23.20;11.50;;;;;;;27.18;16.07;100224.07;108198;1254;71483;-68
2024/03/10 11:06:08;;;;;;;17.90;9.50;;;;;;;27.03;16.00;100224.79;108308;1254;60333;-69
2024/03/10 11:08:36;;;;;;;;;;;;;;;26.85;16.17;100224.86;108258;1254;60087;-69
2024/03/10 11:11:05;;;;;;;17.30;9.70;;;;;;;26.51;16.33;100218.59;108100;1252;75186;-69
2024/03/10 11:13:34;;;;;;;18.50;10.50;;;;;;;26.00;16.80;100222.93;108243;1256;71241;-68
2024/03/10 11:16:11;;;;;;;20.20;11.40;;;;;;;25.29;17.04;100226.09;108349;1252;73023;-68
2024/03/10 11:18:39;;;;;;;20.40;11.00;;;;;;;24.73;17.77;100221.95;108297;1253;60333;-69
2024/03/10 11:21:12;;;;;;;20.70;10.30;;;;;;;24.59;17.99;100220.20;108370;1251;59157;-67
2024/03/10 11:23:43;;;;;;;24.60;10.30;;;;;;;24.66;17.98;100221.17;108347;1257;76113;-68
2024/03/10 11:26:21;;;;;;;18.00;10.90;;;;;;;24.69;18.08;100221.41;108290;1250;71276;-67
2024/03/10 11:30:49;;;;;;;17.10;10.20;;;;;;;24.63;18.25;100223.13;104881;1290;600866;-68
2024/03/10 11:33:21;;;;;;;20.50;9.90;;;;;;;25.66;17.42;100218.91;107304;1267;62493;-68
2024/03/10 11:35:53;;;;;;;19.80;10.30;;;;;;;25.72;17.43;100217.70;107279;1265;62659;-68